CPX17 Details

Departure: Taiwan Taoyuan International Airport (RCTP)
Arrival: Ted Stevens Anchorage International Airport (PANC) at N/A
Route: MOLKA M750 MIDAI M750 BUNGU Y81 SYOYU Y809 KAGIS A590 PABBA A590 PASRO A590 HAMND NEELL6
Notes:


Current Weather Information
RCTP 250530Z 02008KT 9999 FEW015 SCT070 BKN150 32/26 Q1005 NOSIG RMK A2970
PANC 250453Z 00000KT 10SM FEW060 SCT200 16/09 A2976 RMK AO2 SLP079 T01560094